Hauptseite
METAR-TAF:

METAR-TAF

Flughäfen :

Flughafen Saarbrücken

Saarbrücken, Deutschland

Breite: 49-13N, Länge: 007-07E, Höhe: 322 m

Beobachtung

Neuester Wetterbericht von vor 42 Minuten, um 00:50 UTC
Wind 6 kt aus Nord
Temperatur 4°C
Luftfeuchtigkeit 87%
Luftdruck 1019 hPa
Sichtweite 10 km oder mehr
Durchbrochene Bewölkung in der Höhe von 1100 ft

METAR: EDDR 050050Z 36006KT 9999 BKN011 04/02 Q1019

Zeit: 02:32 (01:32 UTC)

Prognose

Neuester Wetterbericht von vor 2 Stunden und 32 Minuten, um 23:00 UTC
Gültige Prognose vom 05 um 00 UTC bis 05 um 24 UTC
Wind 5 kt aus Nordwest
Sichtweite 10 km oder mehr
Durchbrochene Bewölkung in der Höhe von 2500 ft
Zeitweise
vom 05 um 00 UTC bis 05 um 06 UTC
Durchbrochene Bewölkung in der Höhe von 900 ft
Übergehend zu
vom 05 um 06 UTC bis 05 um 08 UTC
Wind 8 kt aus Nord/Nordost

TAF: EDDR 042300Z 0500/0524 32005KT 9999 BKN025 TEMPO 0500/0506 BKN009 BECMG 0506/0508 02008KT

Wetterbeobachtungen und Prognosen von mehr als 4000 Flughäfen (METAR und TAF Bericht).

Die verfügbaren Stationen werden durch gelbe und rote Markierungen auf der Karte dargestellt.

Führen Sie die Maus auf sie, um den Namen der Station zu sehen.

Darauf klicken, um die Beobachtung von Wetterbeobachtungen und Prognosen zu sehen.

Um die Karte zu ändern : klicken Sie auf den grünen Tasten mit einem schwarzen Kreuz Zum Vergrößern, auf den grünen Button mit einem Gedankenstrich zu verkleinern, oder auf die grünen Pfeile für benachbarte Karten.


METAR-TAF: